Terminal Aerodrome Forecast
Issued by NWS

Home | Current Version | Previous Version | Text Only | Print | Product List | Glossary On
Versions: 1 2 3 4 5 6 7 8 9 10 11 12 13 14 15 16 17 18 19 20 21
162
FTUS46 KPDT 271507 AAE
TAFYKM
TAF AMD
KYKM 271507Z 2715/2812 00000KT 2SM BR OVC004
      TEMPO 2715/2716 1/2SM FG OVC002
     FM271600 27005KT 4SM BR SCT002 BKN007 BKN130
     FM271700 26005KT P6SM FEW002 SCT009 BKN110
     FM272100 28011KT P6SM SCT090 SCT120
     FM280300 28006KT P6SM FEW100 SCT200=

USA.gov is the U.S. government's official web portal to all federal, state and local government web resources and services.